Time;durP1;ratioP1;P1;durP2;ratioP2;P2;SDS_P1;SDS_P2;PMS_P1;PMS_P2;Temp;Humidity;BMP_temperature;BMP_pressure;BME280_temperature;BME280_humidity;BME280_pressure;Samples;Min_cycle;Max_cycle;Signal;HPM_P1;HPM_P2
2021/12/14 00:01:40;;;;;;;37.15;22.08;;;;;;;;;;5011419;28;20101;-45
2021/12/14 00:04:11;;;;;;;34.42;19.80;;;;;;;;;;5011146;28;20030;-44
2021/12/14 00:06:38;;;;;;;38.78;21.05;;;;;;;;;;5011290;28;20026;-46
2021/12/14 00:09:05;;;;;;;38.30;22.38;;;;;;;;;;5010759;28;20113;-45
2021/12/14 00:16:44;;;;;;;41.42;19.95;;;;;;;;;;5011564;28;20789;-46
2021/12/14 00:19:10;;;;;;;43.55;21.48;;;;;;;;;;5010210;28;20040;-44
2021/12/14 00:21:36;;;;;;;34.05;21.17;;;;;;;;;;5011406;28;20472;-46
2021/12/14 00:24:06;;;;;;;43.70;22.98;;;;;;;;;;5011207;28;20061;-45
2021/12/14 00:26:32;;;;;;;33.83;20.25;;;;;;;;;;5005761;28;20022;-47
2021/12/14 00:28:58;;;;;;;37.78;21.33;;;;;;;;;;5011017;28;20373;-46
2021/12/14 00:31:25;;;;;;;35.47;20.55;;;;;;;;;;5011165;28;20038;-46
2021/12/14 00:33:55;;;;;;;35.88;21.27;;;;;;;;;;5010738;28;20506;-44
2021/12/14 00:36:21;;;;;;;37.40;21.77;;;;;;;;;;5010611;28;20057;-45
2021/12/14 00:38:49;;;;;;;32.47;19.83;;;;;;;;;;5010347;28;20449;-47
2021/12/14 00:41:20;;;;;;;37.05;22.15;;;;;;;;;;5010633;28;20605;-46
2021/12/14 00:43:47;;;;;;;35.08;21.63;;;;;;;;;;5007569;28;20064;-44
2021/12/14 00:46:13;;;;;;;39.15;21.70;;;;;;;;;;5010596;28;20561;-44
2021/12/14 00:48:39;;;;;;;39.03;18.98;;;;;;;;;;5011078;28;20125;-45
2021/12/14 00:51:06;;;;;;;34.83;19.38;;;;;;;;;;5009932;28;20095;-44
2021/12/14 00:53:32;;;;;;;35.85;20.10;;;;;;;;;;5010150;28;20018;-46
2021/12/14 00:55:59;;;;;;;36.90;22.92;;;;;;;;;;5010316;28;20511;-47
2021/12/14 00:58:25;;;;;;;39.92;22.05;;;;;;;;;;5010567;28;20080;-45
2021/12/14 01:00:55;;;;;;;39.63;21.50;;;;;;;;;;5010445;28;20018;-48
2021/12/14 01:03:22;;;;;;;37.40;20.60;;;;;;;;;;5010467;28;20034;-45
2021/12/14 01:05:49;;;;;;;38.72;20.40;;;;;;;;;;5010109;28;20022;-44
2021/12/14 01:08:17;;;;;;;32.55;20.13;;;;;;;;;;5010414;28;20061;-45
2021/12/14 01:10:50;;;;;;;37.58;21.42;;;;;;;;;;5006611;28;20022;-44
2021/12/14 01:13:19;;;;;;;35.72;19.15;;;;;;;;;;5010191;28;20423;-46
2021/12/14 01:21:07;;;;;;;33.22;18.90;;;;;;;;;;5007338;28;20021;-45
2021/12/14 01:23:34;;;;;;;31.98;18.75;;;;;;;;;;5004717;28;20029;-45
2021/12/14 01:26:10;;;;;;;30.98;17.92;;;;;;;;;;5008800;28;20520;-45
2021/12/14 01:28:37;;;;;;;33.75;18.40;;;;;;;;;;5009676;28;20029;-46
2021/12/14 01:31:13;;;;;;;32.33;18.38;;;;;;;;;;5009835;28;20607;-45
2021/12/14 01:33:41;;;;;;;29.40;17.50;;;;;;;;;;5009939;28;20033;-46
2021/12/14 01:36:22;;;;;;;29.67;17.77;;;;;;;;;;5009772;28;20546;-45
2021/12/14 01:39:08;;;;;;;30.15;17.45;;;;;;;;;;5006522;28;20038;-45
2021/12/14 01:41:35;;;;;;;34.47;17.35;;;;;;;;;;5006820;28;20044;-45
2021/12/14 01:44:01;;;;;;;33.92;17.95;;;;;;;;;;5005857;28;20098;-46
2021/12/14 01:46:47;;;;;;;29.02;17.38;;;;;;;;;;5008649;28;20497;-44
2021/12/14 01:49:15;;;;;;;29.70;17.65;;;;;;;;;;5005609;28;20030;-45
2021/12/14 01:51:42;;;;;;;31.55;18.40;;;;;;;;;;5009686;28;20129;-44
2021/12/14 01:54:09;;;;;;;33.90;19.08;;;;;;;;;;5009119;28;20026;-44
2021/12/14 01:56:36;;;;;;;27.40;16.38;;;;;;;;;;5005123;28;20454;-47
2021/12/14 01:59:16;;;;;;;29.75;18.52;;;;;;;;;;5011605;28;20034;-45
2021/12/14 02:01:54;;;;;;;29.13;16.83;;;;;;;;;;5013415;28;20521;-45
2021/12/14 02:04:20;;;;;;;31.17;19.25;;;;;;;;;;5011159;28;20386;-45
2021/12/14 02:06:53;;;;;;;30.50;19.33;;;;;;;;;;5013140;28;20449;-46
2021/12/14 02:09:19;;;;;;;31.55;19.23;;;;;;;;;;5013965;28;20068;-46
2021/12/14 02:11:51;;;;;;;32.13;19.08;;;;;;;;;;5013357;28;20061;-45
2021/12/14 02:14:17;;;;;;;38.70;19.60;;;;;;;;;;5013181;28;20107;-45
2021/12/14 02:16:47;;;;;;;33.97;18.92;;;;;;;;;;5013004;28;20140;-45
2021/12/14 02:19:15;;;;;;;27.98;17.50;;;;;;;;;;5009735;28;20072;-45
2021/12/14 02:21:46;;;;;;;73.07;22.30;;;;;;;;;;5012815;28;20473;-46
2021/12/14 02:24:13;;;;;;;31.15;20.17;;;;;;;;;;5010343;28;20049;-45
2021/12/14 02:26:41;;;;;;;34.15;18.98;;;;;;;;;;5011361;28;20026;-45
2021/12/14 02:29:09;;;;;;;31.42;18.17;;;;;;;;;;5012994;28;20388;-46
2021/12/14 02:31:37;;;;;;;31.75;19.33;;;;;;;;;;5012111;28;20521;-46
2021/12/14 02:34:05;;;;;;;29.38;18.23;;;;;;;;;;5013140;28;20105;-46
2021/12/14 02:36:34;;;;;;;29.90;18.17;;;;;;;;;;5012388;28;20057;-44
2021/12/14 02:39:07;;;;;;;28.63;18.65;;;;;;;;;;5006975;28;20026;-44
2021/12/14 02:41:34;;;;;;;31.55;19.33;;;;;;;;;;5012044;28;20022;-44
2021/12/14 02:44:01;;;;;;;32.67;19.35;;;;;;;;;;5010927;28;20033;-46
2021/12/14 02:46:35;;;;;;;28.80;18.63;;;;;;;;;;5013024;28;20377;-45
2021/12/14 02:49:03;;;;;;;29.80;19.15;;;;;;;;;;5012012;28;20061;-44
2021/12/14 02:51:34;;;;;;;31.98;18.48;;;;;;;;;;5012829;28;20061;-44
2021/12/14 02:54:05;;;;;;;34.47;18.95;;;;;;;;;;5012501;28;20458;-45
2021/12/14 02:56:34;;;;;;;38.97;19.67;;;;;;;;;;5011263;28;20064;-45
2021/12/14 02:59:08;;;;;;;33.05;18.00;;;;;;;;;;5011703;28;20077;-44
2021/12/14 03:01:35;;;;;;;30.88;17.73;;;;;;;;;;5012883;28;20414;-44
2021/12/14 03:04:02;;;;;;;33.38;19.05;;;;;;;;;;5010564;28;20076;-45
2021/12/14 03:06:30;;;;;;;31.67;17.48;;;;;;;;;;5012426;28;20311;-44
2021/12/14 03:09:08;;;;;;;32.85;18.23;;;;;;;;;;5011704;28;20501;-44
2021/12/14 03:11:35;;;;;;;33.67;20.13;;;;;;;;;;5012624;28;20049;-44
2021/12/14 03:14:01;;;;;;;29.83;18.27;;;;;;;;;;5011684;28;20500;-45
2021/12/14 03:16:29;;;;;;;29.00;18.00;;;;;;;;;;5011956;28;20064;-45
2021/12/14 03:18:56;;;;;;;29.55;17.65;;;;;;;;;;5011836;28;20042;-46
2021/12/14 03:21:24;;;;;;;31.05;17.55;;;;;;;;;;5011839;28;20037;-44
2021/12/14 03:24:11;;;;;;;28.55;17.63;;;;;;;;;;5011648;28;20492;-44
2021/12/14 03:26:40;;;;;;;29.73;17.00;;;;;;;;;;5008211;28;20062;-45
2021/12/14 03:29:08;;;;;;;33.78;17.20;;;;;;;;;;5011416;28;20061;-44
2021/12/14 03:31:39;;;;;;;27.83;17.35;;;;;;;;;;5012095;28;20029;-46
2021/12/14 03:34:05;;;;;;;35.17;19.13;;;;;;;;;;5011450;28;20057;-46
2021/12/14 03:36:33;;;;;;;26.70;17.33;;;;;;;;;;5012383;28;20358;-45
2021/12/14 03:39:12;;;;;;;30.55;16.55;;;;;;;;;;5011511;28;20049;-46
2021/12/14 03:41:50;;;;;;;27.00;17.00;;;;;;;;;;5011942;28;20026;-45
2021/12/14 03:44:19;;;;;;;25.40;16.67;;;;;;;;;;5009366;28;20064;-45
2021/12/14 03:46:48;;;;;;;24.35;15.88;;;;;;;;;;5004893;28;20072;-44
2021/12/14 03:49:14;;;;;;;27.05;16.27;;;;;;;;;;5006672;28;20077;-46
2021/12/14 03:51:40;;;;;;;25.00;15.07;;;;;;;;;;5010403;28;20053;-45
2021/12/14 03:54:07;;;;;;;27.88;16.20;;;;;;;;;;5004471;28;20029;-48
2021/12/14 03:56:33;;;;;;;26.42;16.55;;;;;;;;;;5005171;28;20497;-46
2021/12/14 03:58:59;;;;;;;25.30;16.50;;;;;;;;;;5009226;28;20559;-46
2021/12/14 04:01:30;;;;;;;25.17;15.52;;;;;;;;;;5010181;28;20050;-45
2021/12/14 04:03:59;;;;;;;27.48;16.00;;;;;;;;;;5008518;28;20360;-45
2021/12/14 04:06:27;;;;;;;24.85;14.80;;;;;;;;;;5007808;28;20072;-46
2021/12/14 04:08:53;;;;;;;23.25;14.85;;;;;;;;;;5007418;28;20026;-47
2021/12/14 04:11:19;;;;;;;28.70;16.30;;;;;;;;;;5007502;28;20384;-47
2021/12/14 04:13:47;;;;;;;31.58;14.30;;;;;;;;;;5007066;28;20528;-44
2021/12/14 04:16:14;;;;;;;23.27;14.48;;;;;;;;;;5008697;28;20030;-46
2021/12/14 04:18:40;;;;;;;24.25;16.05;;;;;;;;;;5001943;28;20066;-46
2021/12/14 04:21:07;;;;;;;21.40;14.27;;;;;;;;;;5010756;28;20021;-46
2021/12/14 04:23:35;;;;;;;23.85;15.30;;;;;;;;;;5008703;28;20069;-46
2021/12/14 04:26:02;;;;;;;24.48;15.57;;;;;;;;;;5013563;28;20111;-46
2021/12/14 04:28:31;;;;;;;23.70;15.00;;;;;;;;;;5004289;28;20049;-46
2021/12/14 04:30:57;;;;;;;23.35;14.50;;;;;;;;;;5002466;28;20041;-45
2021/12/14 04:33:29;;;;;;;25.10;15.65;;;;;;;;;;5006754;28;20025;-45
2021/12/14 04:35:55;;;;;;;24.55;14.80;;;;;;;;;;5006286;28;20492;-45
2021/12/14 04:38:27;;;;;;;23.08;14.30;;;;;;;;;;5011581;28;20101;-46
2021/12/14 04:51:59;;;;;;;23.83;14.10;;;;;;;;;;5009929;28;20075;-45
2021/12/14 04:54:46;;;;;;;25.95;14.82;;;;;;;;;;4997992;28;20026;-46
2021/12/14 04:57:18;;;;;;;25.65;15.20;;;;;;;;;;5008969;28;20369;-49
2021/12/14 04:59:44;;;;;;;31.10;15.50;;;;;;;;;;4998737;28;20474;-44
2021/12/14 05:02:13;;;;;;;24.92;14.13;;;;;;;;;;5003490;28;20025;-45
2021/12/14 05:04:39;;;;;;;27.52;14.00;;;;;;;;;;4999872;28;20018;-45
2021/12/14 05:07:28;;;;;;;25.58;15.45;;;;;;;;;;5006322;28;20028;-46
2021/12/14 05:09:53;;;;;;;28.35;14.43;;;;;;;;;;5004505;28;20030;-46
2021/12/14 05:12:22;;;;;;;26.10;12.95;;;;;;;;;;5000516;28;20088;-46
2021/12/14 05:14:48;;;;;;;23.95;14.55;;;;;;;;;;5002473;28;20066;-44
2021/12/14 05:17:16;;;;;;;22.13;14.75;;;;;;;;;;5002940;28;20095;-44
2021/12/14 05:19:44;;;;;;;25.55;15.38;;;;;;;;;;5003273;28;20061;-45
2021/12/14 05:22:12;;;;;;;23.73;14.90;;;;;;;;;;5005403;28;20024;-46
2021/12/14 05:24:39;;;;;;;24.20;14.60;;;;;;;;;;5005116;28;20609;-45
2021/12/14 05:27:07;;;;;;;22.05;14.30;;;;;;;;;;4999969;28;20040;-47
2021/12/14 05:29:34;;;;;;;25.52;14.55;;;;;;;;;;5003299;28;20029;-46
2021/12/14 05:32:01;;;;;;;19.60;13.68;;;;;;;;;;5011015;28;20091;-46
2021/12/14 05:34:28;;;;;;;23.48;14.45;;;;;;;;;;5007272;28;20109;-46
2021/12/14 05:36:55;;;;;;;25.85;15.32;;;;;;;;;;5007885;28;20062;-46
2021/12/14 05:44:33;;;;;;;26.55;14.18;;;;;;;;;;5006526;28;20141;-46
2021/12/14 05:47:00;;;;;;;22.17;13.90;;;;;;;;;;5005363;28;20077;-45
2021/12/14 05:49:27;;;;;;;21.33;13.88;;;;;;;;;;5010229;28;20044;-45
2021/12/14 05:51:54;;;;;;;30.83;14.93;;;;;;;;;;5008240;28;20469;-45
2021/12/14 05:54:30;;;;;;;21.00;14.43;;;;;;;;;;5010034;28;20022;-45
2021/12/14 05:56:58;;;;;;;22.13;13.68;;;;;;;;;;5006748;28;20095;-44
2021/12/14 05:59:27;;;;;;;22.42;14.75;;;;;;;;;;5013275;28;20034;-45
2021/12/14 06:01:53;;;;;;;29.70;15.30;;;;;;;;;;5012535;28;20018;-46
2021/12/14 06:04:20;;;;;;;26.77;15.95;;;;;;;;;;5006779;28;20128;-46
2021/12/14 06:06:52;;;;;;;26.15;14.10;;;;;;;;;;5006377;28;20022;-47
2021/12/14 06:09:19;;;;;;;23.88;14.18;;;;;;;;;;5001573;28;20433;-47
2021/12/14 06:11:47;;;;;;;28.33;16.08;;;;;;;;;;5005123;28;20061;-45
2021/12/14 06:14:16;;;;;;;22.05;14.35;;;;;;;;;;5010331;28;20030;-47
2021/12/14 06:16:42;;;;;;;22.77;14.75;;;;;;;;;;5002297;28;20038;-47
2021/12/14 06:19:28;;;;;;;23.35;14.30;;;;;;;;;;5006502;28;20072;-46
2021/12/14 06:22:00;;;;;;;28.65;15.35;;;;;;;;;;5013006;28;20061;-47
2021/12/14 06:24:27;;;;;;;23.45;13.63;;;;;;;;;;5006906;28;20035;-46
2021/12/14 06:26:54;;;;;;;21.77;13.15;;;;;;;;;;5000974;28;20026;-45
2021/12/14 06:29:23;;;;;;;21.77;14.00;;;;;;;;;;5004019;28;20033;-46
2021/12/14 06:31:49;;;;;;;28.63;14.60;;;;;;;;;;5003700;28;20146;-47
2021/12/14 06:34:26;;;;;;;24.50;14.70;;;;;;;;;;5008883;28;20068;-45
2021/12/14 06:37:19;;;;;;;23.52;14.77;;;;;;;;;;5009191;28;20128;-46
2021/12/14 06:40:03;;;;;;;23.50;14.43;;;;;;;;;;5003513;28;20049;-46
2021/12/14 06:42:30;;;;;;;23.45;15.13;;;;;;;;;;5003241;28;20105;-46
2021/12/14 06:45:08;;;;;;;19.63;13.80;;;;;;;;;;5008133;28;20038;-45
2021/12/14 06:47:34;;;;;;;24.10;13.40;;;;;;;;;;5003270;28;20408;-46
2021/12/14 06:50:05;;;;;;;23.40;14.18;;;;;;;;;;5004198;28;20528;-46
2021/12/14 06:52:31;;;;;;;30.48;15.35;;;;;;;;;;5004601;28;20065;-45
2021/12/14 06:54:57;;;;;;;25.83;15.65;;;;;;;;;;5006938;28;20017;-46
2021/12/14 06:57:24;;;;;;;22.40;15.38;;;;;;;;;;5004372;28;20022;-46
2021/12/14 06:59:50;;;;;;;22.55;14.18;;;;;;;;;;5007553;28;20026;-47
2021/12/14 07:02:16;;;;;;;25.35;15.35;;;;;;;;;;5010988;28;20572;-46
2021/12/14 07:04:48;;;;;;;25.58;15.00;;;;;;;;;;5002961;28;20466;-46
2021/12/14 07:07:15;;;;;;;24.02;15.25;;;;;;;;;;5008736;28;20021;-46
2021/12/14 07:09:43;;;;;;;23.30;14.52;;;;;;;;;;5003170;28;20034;-47
2021/12/14 07:12:12;;;;;;;29.05;14.68;;;;;;;;;;5009325;28;20029;-47
2021/12/14 07:14:38;;;;;;;25.67;14.90;;;;;;;;;;5001394;28;20049;-47
2021/12/14 07:17:11;;;;;;;23.15;15.35;;;;;;;;;;5008601;28;20025;-47
2021/12/14 07:19:46;;;;;;;26.10;14.55;;;;;;;;;;5015327;28;20029;-47
2021/12/14 07:22:30;;;;;;;27.73;16.67;;;;;;;;;;4998995;28;20025;-47
2021/12/14 07:25:08;;;;;;;26.30;15.48;;;;;;;;;;5005180;28;20026;-47
2021/12/14 07:27:38;;;;;;;24.92;16.27;;;;;;;;;;5004268;28;20517;-47
2021/12/14 07:30:14;;;;;;;26.48;15.23;;;;;;;;;;5006056;28;20025;-47
2021/12/14 07:32:52;;;;;;;25.70;16.25;;;;;;;;;;5002919;28;20034;-46
2021/12/14 07:35:18;;;;;;;31.15;16.48;;;;;;;;;;5001503;28;20041;-47
2021/12/14 07:37:44;;;;;;;32.75;17.23;;;;;;;;;;5010138;28;20462;-47
2021/12/14 07:40:11;;;;;;;31.92;17.15;;;;;;;;;;5000747;28;20018;-40
2021/12/14 07:42:37;;;;;;;24.60;16.20;;;;;;;;;;5000447;28;20054;-40
2021/12/14 07:45:04;;;;;;;24.77;16.10;;;;;;;;;;4999187;28;20022;-39
2021/12/14 07:47:30;;;;;;;26.40;15.65;;;;;;;;;;5004951;28;20115;-40
2021/12/14 07:49:57;;;;;;;27.58;16.45;;;;;;;;;;5005652;28;20055;-39
2021/12/14 07:52:25;;;;;;;25.63;16.10;;;;;;;;;;5006686;28;20468;-40
2021/12/14 07:54:56;;;;;;;30.30;17.52;;;;;;;;;;5006480;28;20059;-39
2021/12/14 07:57:24;;;;;;;26.92;16.55;;;;;;;;;;5009242;28;20443;-40
2021/12/14 07:59:52;;;;;;;23.13;14.50;;;;;;;;;;5007544;28;20140;-40
2021/12/14 08:02:20;;;;;;;24.40;15.93;;;;;;;;;;5007893;28;20045;-40
2021/12/14 08:04:57;;;;;;;27.75;16.88;;;;;;;;;;5010414;28;20018;-39
2021/12/14 08:07:31;;;;;;;27.65;16.90;;;;;;;;;;5018343;28;20147;-40
2021/12/14 08:10:12;;;;;;;30.35;16.27;;;;;;;;;;5001300;28;20019;-39
2021/12/14 08:12:38;;;;;;;27.10;16.73;;;;;;;;;;5001930;28;20528;-40
2021/12/14 08:15:09;;;;;;;29.02;17.35;;;;;;;;;;5001660;28;20041;-39
2021/12/14 08:17:36;;;;;;;28.13;16.70;;;;;;;;;;5008643;28;21361;-40
2021/12/14 08:20:04;;;;;;;27.50;17.52;;;;;;;;;;5004707;28;20029;-40
2021/12/14 08:22:37;;;;;;;30.35;17.70;;;;;;;;;;5011844;28;20112;-40
2021/12/14 08:25:05;;;;;;;29.85;16.38;;;;;;;;;;5001196;28;20186;-40
2021/12/14 08:27:31;;;;;;;29.80;17.00;;;;;;;;;;5003391;28;20022;-42
2021/12/14 08:29:59;;;;;;;31.65;19.35;;;;;;;;;;4998158;28;20021;-39
2021/12/14 08:32:28;;;;;;;36.65;19.60;;;;;;;;;;5001334;28;20048;-39
2021/12/14 08:34:56;;;;;;;29.48;17.92;;;;;;;;;;5003664;28;20120;-41
2021/12/14 08:37:27;;;;;;;27.30;16.55;;;;;;;;;;5004562;28;20053;-40
2021/12/14 08:39:56;;;;;;;32.30;18.17;;;;;;;;;;4998315;28;20128;-39
2021/12/14 08:42:49;;;;;;;34.38;19.30;;;;;;;;;;5004268;28;20420;-39
2021/12/14 08:45:26;;;;;;;36.20;19.42;;;;;;;;;;5012020;28;20358;-39
2021/12/14 08:48:13;;;;;;;33.53;19.05;;;;;;;;;;5000921;28;20050;-39
2021/12/14 08:50:41;;;;;;;32.28;17.67;;;;;;;;;;4997673;28;20029;-38
2021/12/14 08:53:08;;;;;;;34.05;19.05;;;;;;;;;;4996139;28;20021;-39
2021/12/14 08:55:36;;;;;;;32.08;19.73;;;;;;;;;;5010264;28;20044;-37
2021/12/14 08:58:03;;;;;;;36.35;18.95;;;;;;;;;;5018445;28;20022;-38
2021/12/14 09:00:32;;;;;;;35.10;18.30;;;;;;;;;;5010305;28;20168;-39
2021/12/14 09:03:00;;;;;;;34.15;19.65;;;;;;;;;;5009636;28;20033;-39
2021/12/14 09:05:32;;;;;;;34.22;20.13;;;;;;;;;;5010713;28;20049;-40
2021/12/14 09:07:59;;;;;;;34.97;20.33;;;;;;;;;;5001167;28;20113;-38
2021/12/14 09:10:26;;;;;;;41.25;20.73;;;;;;;;;;5011170;28;20053;-39
2021/12/14 09:12:55;;;;;;;35.10;19.95;;;;;;;;;;5013829;28;20037;-38
2021/12/14 09:15:30;;;;;;;37.70;21.42;;;;;;;;;;5009355;28;20555;-38
2021/12/14 09:17:56;;;;;;;45.15;22.08;;;;;;;;;;5009313;28;20216;-39
2021/12/14 09:20:22;;;;;;;41.72;20.02;;;;;;;;;;5007177;28;20064;-39
2021/12/14 09:22:51;;;;;;;38.08;21.00;;;;;;;;;;5008998;28;20030;-38
2021/12/14 09:25:18;;;;;;;40.15;22.80;;;;;;;;;;5008957;28;20033;-39
2021/12/14 09:27:45;;;;;;;40.88;21.45;;;;;;;;;;5006199;28;20040;-40
2021/12/14 09:30:12;;;;;;;45.42;23.50;;;;;;;;;;5009020;28;20022;-39
2021/12/14 09:32:39;;;;;;;45.40;23.77;;;;;;;;;;4998682;28;20488;-38
2021/12/14 09:35:08;;;;;;;43.45;23.55;;;;;;;;;;5007826;28;20026;-39
2021/12/14 09:37:34;;;;;;;49.50;23.95;;;;;;;;;;5009312;28;20496;-39
2021/12/14 09:40:04;;;;;;;42.97;24.30;;;;;;;;;;5002537;28;20026;-39
2021/12/14 09:42:32;;;;;;;49.38;25.02;;;;;;;;;;5003057;28;20041;-39
2021/12/14 09:45:01;;;;;;;47.03;23.80;;;;;;;;;;5003517;28;20031;-39
2021/12/14 09:47:29;;;;;;;45.10;24.88;;;;;;;;;;5024502;23;20035;-38
2021/12/14 09:49:56;;;;;;;48.83;25.30;;;;;;;;;;5007604;28;20404;-38
2021/12/14 09:52:31;;;;;;;48.72;25.20;;;;;;;;;;5016740;28;20065;-37
2021/12/14 09:54:58;;;;;;;51.83;27.50;;;;;;;;;;5008087;28;20030;-38
2021/12/14 09:57:32;;;;;;;52.75;28.15;;;;;;;;;;5011633;28;20678;-38
2021/12/14 09:59:59;;;;;;;48.90;26.63;;;;;;;;;;5006163;28;20299;-37
2021/12/14 10:02:32;;;;;;;53.45;28.60;;;;;;;;;;5010670;28;21269;-38
2021/12/14 10:05:01;;;;;;;52.65;29.23;;;;;;;;;;5011014;28;20427;-38
2021/12/14 10:07:27;;;;;;;46.10;27.80;;;;;;;;;;5014015;28;20020;-38
2021/12/14 10:09:55;;;;;;;57.45;30.58;;;;;;;;;;5011152;28;20064;-37
2021/12/14 10:14:50;;;;;;;58.30;30.33;;;;;;;;;;5018707;28;20495;-38
2021/12/14 10:17:18;;;;;;;61.83;30.65;;;;;;;;;;5014677;28;20028;-37
2021/12/14 10:19:46;;;;;;;62.55;31.05;;;;;;;;;;5014790;28;20461;-38
2021/12/14 10:22:15;;;;;;;59.45;30.48;;;;;;;;;;5009292;28;20068;-38
2021/12/14 10:24:41;;;;;;;64.72;32.00;;;;;;;;;;5014334;28;20508;-38
2021/12/14 10:27:09;;;;;;;61.03;31.50;;;;;;;;;;5016085;28;20373;-37
2021/12/14 10:29:36;;;;;;;63.63;32.03;;;;;;;;;;5013393;28;20079;-38
2021/12/14 10:32:08;;;;;;;65.70;31.70;;;;;;;;;;5016884;28;20057;-38
2021/12/14 10:34:39;;;;;;;63.28;31.48;;;;;;;;;;5008560;28;20106;-37
2021/12/14 10:37:15;;;;;;;56.83;29.23;;;;;;;;;;5010998;28;20033;-37
2021/12/14 10:42:41;;;;;;;57.47;29.60;;;;;;;;;;5013960;28;20034;-37
2021/12/14 10:45:14;;;;;;;58.95;30.25;;;;;;;;;;5009959;28;20088;-37
2021/12/14 10:47:41;;;;;;;62.08;31.70;;;;;;;;;;5013930;28;20049;-38
2021/12/14 10:50:12;;;;;;;60.88;32.30;;;;;;;;;;5015451;28;20018;-38
2021/12/14 10:52:42;;;;;;;67.10;32.30;;;;;;;;;;5014009;28;20099;-37
2021/12/14 10:55:10;;;;;;;66.10;32.80;;;;;;;;;;5014371;28;20038;-38
2021/12/14 10:57:36;;;;;;;58.67;29.98;;;;;;;;;;5009715;28;20072;-38
2021/12/14 11:00:09;;;;;;;65.82;33.28;;;;;;;;;;5016532;28;20044;-37
2021/12/14 11:02:40;;;;;;;68.65;33.85;;;;;;;;;;5012659;28;20033;-37
2021/12/14 11:05:14;;;;;;;71.25;36.20;;;;;;;;;;5016663;28;20373;-38
2021/12/14 11:07:45;;;;;;;66.35;34.78;;;;;;;;;;5013566;28;20024;-38
2021/12/14 11:10:16;;;;;;;67.57;34.22;;;;;;;;;;5013154;28;20033;-38
2021/12/14 11:12:44;;;;;;;71.95;35.33;;;;;;;;;;5014759;28;20022;-37
2021/12/14 11:15:32;;;;;;;70.40;35.13;;;;;;;;;;5013375;28;20061;-38
2021/12/14 11:18:09;;;;;;;73.10;36.00;;;;;;;;;;5010056;28;20381;-37
2021/12/14 11:20:35;;;;;;;69.45;35.67;;;;;;;;;;5006955;28;20026;-38
2021/12/14 11:23:04;;;;;;;82.13;37.40;;;;;;;;;;5010879;28;20041;-38
2021/12/14 11:25:32;;;;;;;81.30;37.88;;;;;;;;;;5008970;28;20109;-38
2021/12/14 11:28:00;;;;;;;82.53;35.60;;;;;;;;;;5010834;28;20042;-37
2021/12/14 11:30:34;;;;;;;75.40;37.55;;;;;;;;;;5016349;28;20026;-38
2021/12/14 11:33:06;;;;;;;76.18;36.55;;;;;;;;;;5011453;28;20030;-38
2021/12/14 11:35:34;;;;;;;80.95;38.25;;;;;;;;;;5012454;28;20030;-38
2021/12/14 11:38:01;;;;;;;91.22;41.15;;;;;;;;;;5012554;28;20113;-37
2021/12/14 11:40:29;;;;;;;97.28;41.53;;;;;;;;;;5011719;28;20025;-38
2021/12/14 11:43:08;;;;;;;87.43;40.13;;;;;;;;;;5011315;28;20044;-38
2021/12/14 11:45:36;;;;;;;98.28;42.53;;;;;;;;;;5010496;28;20108;-37
2021/12/14 11:48:03;;;;;;;85.75;39.95;;;;;;;;;;5007358;28;20033;-38
2021/12/14 11:50:44;;;;;;;93.95;41.95;;;;;;;;;;5011130;28;20092;-38
2021/12/14 11:53:14;;;;;;;98.32;41.65;;;;;;;;;;5008358;28;20500;-38
2021/12/14 11:55:40;;;;;;;92.38;41.85;;;;;;;;;;5014591;28;20663;-38
2021/12/14 11:58:06;;;;;;;93.60;41.00;;;;;;;;;;5011753;28;20047;-38
2021/12/14 12:00:33;;;;;;;97.10;42.58;;;;;;;;;;5011359;28;20022;-37
2021/12/14 12:03:17;;;;;;;95.85;40.63;;;;;;;;;;5011987;28;20026;-38
2021/12/14 12:05:58;;;;;;;95.07;41.45;;;;;;;;;;5010235;28;20140;-37
2021/12/14 12:11:10;;;;;;;107.30;40.72;;;;;;;;;;5007737;28;20086;-37
2021/12/14 12:13:38;;;;;;;94.13;41.65;;;;;;;;;;5009794;28;20064;-38
2021/12/14 12:16:16;;;;;;;101.68;42.30;;;;;;;;;;5010612;28;20029;-38
2021/12/14 12:19:01;;;;;;;102.45;42.47;;;;;;;;;;5008913;28;20022;-38
2021/12/14 12:21:28;;;;;;;104.68;40.00;;;;;;;;;;5009630;28;20052;-38
2021/12/14 12:23:54;;;;;;;94.88;38.35;;;;;;;;;;5007065;28;20104;-37
2021/12/14 12:26:25;;;;;;;102.70;38.45;;;;;;;;;;5009056;28;20097;-38
2021/12/14 12:28:52;;;;;;;97.57;38.20;;;;;;;;;;5012724;28;20472;-38
2021/12/14 12:31:20;;;;;;;88.53;37.72;;;;;;;;;;5011226;28;20041;-38
2021/12/14 12:33:48;;;;;;;91.72;36.38;;;;;;;;;;5010244;28;20050;-37
2021/12/14 12:36:25;;;;;;;93.00;37.47;;;;;;;;;;5009221;28;20022;-38
2021/12/14 12:38:52;;;;;;;89.93;37.25;;;;;;;;;;5010669;28;20053;-38
2021/12/14 12:41:25;;;;;;;90.85;35.50;;;;;;;;;;5010837;28;20021;-38
2021/12/14 12:43:57;;;;;;;89.82;36.20;;;;;;;;;;5010079;28;20065;-38
2021/12/14 12:46:27;;;;;;;90.25;37.00;;;;;;;;;;5010105;28;20014;-37
2021/12/14 12:48:58;;;;;;;90.50;36.72;;;;;;;;;;5010387;28;20044;-37
2021/12/14 12:51:40;;;;;;;90.43;36.92;;;;;;;;;;5010702;28;20021;-37
2021/12/14 12:54:10;;;;;;;90.47;35.78;;;;;;;;;;5009678;28;20026;-37
2021/12/14 12:56:38;;;;;;;87.40;36.25;;;;;;;;;;5009887;28;20489;-38
2021/12/14 12:59:06;;;;;;;87.20;35.45;;;;;;;;;;5008867;28;20026;-37
2021/12/14 13:01:32;;;;;;;100.22;38.65;;;;;;;;;;5013026;28;20104;-37
2021/12/14 13:03:58;;;;;;;88.50;36.55;;;;;;;;;;5008267;28;20041;-37
2021/12/14 13:06:25;;;;;;;93.90;35.65;;;;;;;;;;5011756;28;20034;-38
2021/12/14 13:08:55;;;;;;;83.75;35.50;;;;;;;;;;5010410;28;20121;-37
2021/12/14 13:11:32;;;;;;;92.60;37.58;;;;;;;;;;5010236;28;20047;-38
2021/12/14 13:14:01;;;;;;;81.32;34.38;;;;;;;;;;5008509;28;20107;-37
2021/12/14 13:16:29;;;;;;;82.70;33.58;;;;;;;;;;5009002;28;20652;-38
2021/12/14 13:18:58;;;;;;;87.15;35.00;;;;;;;;;;5009430;28;20037;-35
2021/12/14 13:21:42;;;;;;;96.55;34.13;;;;;;;;;;5008918;28;20033;-37
2021/12/14 13:24:20;;;;;;;92.45;36.55;;;;;;;;;;5012132;28;20033;-37
2021/12/14 13:26:58;;;;;;;82.25;35.83;;;;;;;;;;5006532;28;20026;-38
2021/12/14 13:29:24;;;;;;;79.60;33.38;;;;;;;;;;5008281;28;20041;-37
2021/12/14 13:32:02;;;;;;;83.85;33.10;;;;;;;;;;5022272;28;20037;-37
2021/12/14 13:34:36;;;;;;;75.97;31.80;;;;;;;;;;5016292;28;20033;-38
2021/12/14 13:37:03;;;;;;;87.67;35.07;;;;;;;;;;5013396;28;20034;-36
2021/12/14 13:39:29;;;;;;;68.05;30.85;;;;;;;;;;5009160;28;20350;-38
2021/12/14 13:42:07;;;;;;;80.65;34.08;;;;;;;;;;5009097;28;20477;-38
2021/12/14 13:44:35;;;;;;;75.97;32.55;;;;;;;;;;5001644;28;20029;-36
2021/12/14 13:47:03;;;;;;;82.50;32.42;;;;;;;;;;5012745;28;20522;-37
2021/12/14 13:49:29;;;;;;;85.07;33.78;;;;;;;;;;5009158;28;20117;-37
2021/12/14 13:51:56;;;;;;;79.47;33.38;;;;;;;;;;5008627;28;20076;-37
2021/12/14 13:54:22;;;;;;;80.65;32.28;;;;;;;;;;5010963;28;20495;-36
2021/12/14 13:56:50;;;;;;;78.65;30.98;;;;;;;;;;5013590;28;20080;-38
2021/12/14 13:59:16;;;;;;;83.95;36.05;;;;;;;;;;5015626;28;20053;-37
2021/12/14 14:01:45;;;;;;;75.70;32.42;;;;;;;;;;5019862;28;20061;-38
2021/12/14 14:04:13;;;;;;;85.65;32.80;;;;;;;;;;5012511;28;20025;-38
2021/12/14 14:06:39;;;;;;;79.68;31.30;;;;;;;;;;5009704;28;20062;-38
2021/12/14 14:09:11;;;;;;;71.57;30.50;;;;;;;;;;5024420;28;20109;-37
2021/12/14 14:11:39;;;;;;;77.03;32.13;;;;;;;;;;5014247;28;20037;-38
2021/12/14 14:14:08;;;;;;;84.82;33.88;;;;;;;;;;5015472;28;20033;-38
2021/12/14 14:16:42;;;;;;;90.05;37.22;;;;;;;;;;5014766;28;20086;-37
2021/12/14 14:19:11;;;;;;;75.07;34.00;;;;;;;;;;5011973;28;20120;-36
2021/12/14 14:21:37;;;;;;;70.00;33.83;;;;;;;;;;5012790;28;20501;-37
2021/12/14 14:24:03;;;;;;;84.68;35.85;;;;;;;;;;5008411;28;21208;-37
2021/12/14 14:26:29;;;;;;;82.35;34.33;;;;;;;;;;5008416;28;20475;-38
2021/12/14 14:29:03;;;;;;;74.07;33.70;;;;;;;;;;5012865;28;20026;-37
2021/12/14 14:31:29;;;;;;;70.22;31.85;;;;;;;;;;5013219;28;20044;-37
2021/12/14 14:33:56;;;;;;;78.70;31.77;;;;;;;;;;5022462;28;20033;-37
2021/12/14 14:36:24;;;;;;;78.15;32.60;;;;;;;;;;5012214;28;20022;-37
2021/12/14 14:38:52;;;;;;;82.07;33.50;;;;;;;;;;5008682;28;20034;-38
2021/12/14 14:41:19;;;;;;;79.30;34.17;;;;;;;;;;5012732;28;20065;-38
2021/12/14 14:43:51;;;;;;;80.38;35.00;;;;;;;;;;5012122;28;20025;-38
2021/12/14 14:46:37;;;;;;;83.53;34.38;;;;;;;;;;5012979;28;20050;-37
2021/12/14 14:49:02;;;;;;;;;;;;;;;;;;5007020;28;20061;-38
2021/12/14 14:51:28;;;;;;;;;;;;;;;;;;5016366;28;19952;-38
2021/12/14 14:53:54;;;;;;;79.70;31.98;;;;;;;;;;5011880;28;20343;-37
2021/12/14 14:56:20;;;;;;;78.38;33.67;;;;;;;;;;5012443;28;20053;-38
2021/12/14 14:58:46;;;;;;;80.57;33.50;;;;;;;;;;5012860;28;20567;-38
2021/12/14 15:01:21;;;;;;;84.82;36.55;;;;;;;;;;5012603;28;20361;-38
2021/12/14 15:03:47;;;;;;;85.20;33.90;;;;;;;;;;5010757;28;20022;-37
2021/12/14 15:06:20;;;;;;;95.60;36.78;;;;;;;;;;5013824;28;20485;-38
2021/12/14 15:08:48;;;;;;;87.10;36.53;;;;;;;;;;5012291;28;20081;-38